createdAt,value
2018-06-23T00:01:00.681Z,5.07
2018-06-23T00:03:29.313Z,4.20
2018-06-23T00:05:57.460Z,4.80
2018-06-23T00:08:25.621Z,5.47
2018-06-23T00:10:53.941Z,5.00
2018-06-23T00:13:22.680Z,4.97
2018-06-23T00:15:50.901Z,4.90
2018-06-23T00:18:19.553Z,4.40
2018-06-23T00:20:47.681Z,4.27
2018-06-23T00:23:15.802Z,4.23
2018-06-23T00:25:49.172Z,4.03
2018-06-23T00:28:17.292Z,4.50
2018-06-23T00:30:45.457Z,3.83
2018-06-23T00:33:13.582Z,4.30
2018-06-23T00:35:41.712Z,4.53
2018-06-23T00:38:09.841Z,4.60
2018-06-23T00:40:37.970Z,4.20
2018-06-23T00:43:06.124Z,3.90
2018-06-23T00:45:34.268Z,4.23
2018-06-23T00:48:02.406Z,4.23
2018-06-23T00:50:30.517Z,3.97
2018-06-23T00:52:58.676Z,4.20
2018-06-23T00:55:26.813Z,4.50
2018-06-23T00:57:54.952Z,4.80
2018-06-23T01:00:23.109Z,3.77
2018-06-23T01:02:51.266Z,4.80
2018-06-23T01:05:19.830Z,4.63
2018-06-23T01:07:48.446Z,4.60
2018-06-23T01:10:16.556Z,4.40
2018-06-23T01:12:44.692Z,4.40
2018-06-23T01:15:12.842Z,4.50
2018-06-23T01:17:40.977Z,4.13
2018-06-23T01:20:09.116Z,5.23
2018-06-23T01:22:37.237Z,4.90
2018-06-23T01:25:05.374Z,4.70
2018-06-23T01:27:33.517Z,4.73
2018-06-23T01:30:01.657Z,4.60
2018-06-23T01:32:29.797Z,5.47
2018-06-23T01:34:57.946Z,4.30
2018-06-23T01:37:26.089Z,4.83
2018-06-23T01:39:54.227Z,5.07
2018-06-23T01:42:22.368Z,5.07
2018-06-23T01:44:50.524Z,4.80
2018-06-23T01:47:18.669Z,4.80
2018-06-23T01:49:46.799Z,4.73
2018-06-23T01:52:15.244Z,4.90
2018-06-23T01:54:43.381Z,4.83
2018-06-23T01:57:11.290Z,3.60
2018-06-23T01:59:39.410Z,4.20
2018-06-23T02:02:07.530Z,4.10
2018-06-23T02:04:35.681Z,4.20
2018-06-23T02:07:03.794Z,4.80
2018-06-23T02:09:31.951Z,4.90
2018-06-23T02:12:00.097Z,4.97
2018-06-23T02:14:33.650Z,4.53
2018-06-23T02:17:07.242Z,4.47
2018-06-23T02:19:40.789Z,4.20
2018-06-23T02:22:14.245Z,4.00
2018-06-23T02:24:47.805Z,4.53
2018-06-23T02:27:21.355Z,4.80
2018-06-23T02:29:54.696Z,5.13
2018-06-23T02:32:28.362Z,4.53
2018-06-23T02:35:01.812Z,5.00
2018-06-23T02:37:29.934Z,4.83
2018-06-23T02:39:58.085Z,4.17
2018-06-23T02:42:26.216Z,4.50
2018-06-23T02:44:54.396Z,4.30
2018-06-23T02:47:22.534Z,5.13
2018-06-23T02:49:52.094Z,4.30
2018-06-23T02:52:20.352Z,4.50
2018-06-23T02:54:48.486Z,4.47
2018-06-23T02:57:16.604Z,4.03
2018-06-23T02:59:44.731Z,4.60
2018-06-23T03:02:12.854Z,4.40
2018-06-23T03:04:41.004Z,4.63
2018-06-23T03:07:09.306Z,4.67
2018-06-23T03:09:37.662Z,5.00
2018-06-23T03:12:05.891Z,5.30
2018-06-23T03:14:34.067Z,5.60
2018-06-23T03:17:02.321Z,4.33
2018-06-23T03:19:30.554Z,5.00
2018-06-23T03:21:58.746Z,5.10
2018-06-23T03:24:27.337Z,4.50
2018-06-23T03:26:55.530Z,4.60
2018-06-23T03:29:23.779Z,4.40
2018-06-23T03:31:52.365Z,4.93
2018-06-23T03:34:20.662Z,4.13
2018-06-23T03:36:49.002Z,4.97
2018-06-23T03:39:17.414Z,5.13
2018-06-23T03:41:45.595Z,3.87
2018-06-23T03:44:13.859Z,4.60
2018-06-23T03:46:41.991Z,4.77
2018-06-23T03:49:09.926Z,4.83
2018-06-23T03:51:38.074Z,5.00
2018-06-23T03:54:06.225Z,4.47
2018-06-23T03:56:34.405Z,4.93
2018-06-23T03:59:03.013Z,4.30
2018-06-23T04:01:31.361Z,4.63
2018-06-23T04:03:59.949Z,4.33
2018-06-23T04:06:28.074Z,4.50
2018-06-23T04:08:56.230Z,4.27
2018-06-23T04:11:24.418Z,4.60
2018-06-23T04:13:52.539Z,5.33
2018-06-23T04:16:20.662Z,5.20
2018-06-23T04:18:56.177Z,4.80
2018-06-23T04:21:24.529Z,5.47
2018-06-23T04:23:52.666Z,5.03
2018-06-23T04:26:20.824Z,4.93
2018-06-23T04:28:49.527Z,6.27
2018-06-23T04:31:17.803Z,5.10
2018-06-23T04:33:45.941Z,5.80
2018-06-23T04:36:14.558Z,5.60
2018-06-23T04:38:42.785Z,5.63
2018-06-23T04:41:10.950Z,4.83
2018-06-23T04:43:39.337Z,5.30
2018-06-23T04:46:07.645Z,5.03
2018-06-23T04:48:36.013Z,3.80
2018-06-23T04:51:04.365Z,4.07
2018-06-23T04:53:40.757Z,4.40
2018-06-23T04:56:09.397Z,4.67
2018-06-23T04:58:37.660Z,4.77
2018-06-23T05:01:05.831Z,3.93
2018-06-23T05:03:33.953Z,3.73
2018-06-23T05:06:02.117Z,3.90
2018-06-23T05:08:30.291Z,4.30
2018-06-23T05:10:58.565Z,4.40
2018-06-23T05:13:26.685Z,4.00
2018-06-23T05:15:54.837Z,4.87
2018-06-23T05:18:23.000Z,4.50
2018-06-23T05:20:51.097Z,4.10
2018-06-23T05:23:19.220Z,4.37
2018-06-23T05:25:47.329Z,4.90
2018-06-23T05:28:15.482Z,4.50
2018-06-23T05:30:43.636Z,4.23
2018-06-23T05:33:11.985Z,4.73
2018-06-23T05:35:40.158Z,5.00
2018-06-23T05:38:08.341Z,4.60
2018-06-23T05:40:36.493Z,4.97
2018-06-23T05:43:04.679Z,4.37
2018-06-23T05:45:32.847Z,4.93
2018-06-23T05:48:02.338Z,5.53
2018-06-23T05:50:30.745Z,4.90
2018-06-23T05:52:58.972Z,5.13
2018-06-23T05:55:27.154Z,4.60
2018-06-23T05:57:55.286Z,4.60
2018-06-23T06:00:23.432Z,3.90
2018-06-23T06:02:51.562Z,4.80
2018-06-23T06:05:19.706Z,4.17
2018-06-23T06:07:47.850Z,4.17
2018-06-23T06:10:15.972Z,5.13
2018-06-23T06:12:44.104Z,3.80
2018-06-23T06:15:12.008Z,5.10
2018-06-23T06:17:40.894Z,4.37
2018-06-23T06:20:10.430Z,4.73
2018-06-23T06:22:39.855Z,4.33
2018-06-23T06:25:08.823Z,4.40
2018-06-23T06:27:37.300Z,4.57
2018-06-23T06:30:06.618Z,5.00
2018-06-23T06:32:35.232Z,4.63
2018-06-23T06:35:03.600Z,4.30
2018-06-23T06:37:31.768Z,4.43
2018-06-23T06:39:59.989Z,4.53
2018-06-23T06:42:29.385Z,4.87
2018-06-23T06:44:57.668Z,4.60
2018-06-23T06:47:26.671Z,5.03
2018-06-23T06:49:54.873Z,4.40
2018-06-23T06:52:23.217Z,4.60
2018-06-23T06:54:57.472Z,5.27
2018-06-23T06:57:25.812Z,5.27
2018-06-23T06:59:54.103Z,5.10
2018-06-23T07:02:22.530Z,5.10
2018-06-23T07:04:50.620Z,4.30
2018-06-23T07:07:19.306Z,5.87
2018-06-23T07:09:47.561Z,5.20
2018-06-23T07:12:15.773Z,5.37
2018-06-23T07:14:44.155Z,4.97
2018-06-23T07:17:12.706Z,5.00
2018-06-23T07:19:41.729Z,5.10
2018-06-23T07:22:10.058Z,4.67
2018-06-23T07:24:38.486Z,5.23
2018-06-23T07:27:06.746Z,5.20
2018-06-23T07:29:34.937Z,5.40
2018-06-23T07:32:03.094Z,5.40
2018-06-23T07:34:31.318Z,5.90
2018-06-23T07:36:59.475Z,6.03
2018-06-23T07:39:27.633Z,5.20
2018-06-23T07:41:55.782Z,5.50
2018-06-23T07:44:23.925Z,5.57
2018-06-23T07:46:52.134Z,5.43
2018-06-23T07:49:20.260Z,5.83
2018-06-23T07:51:48.389Z,5.70
2018-06-23T07:54:16.528Z,6.03
2018-06-23T07:56:44.677Z,6.37
2018-06-23T07:59:12.816Z,6.30
2018-06-23T08:01:41.004Z,4.73
2018-06-23T08:04:09.122Z,5.97
2018-06-23T08:06:37.317Z,5.43
2018-06-23T08:09:07.757Z,4.97
2018-06-23T08:11:35.921Z,5.40
2018-06-23T08:14:04.610Z,5.63
2018-06-23T08:16:32.772Z,4.90
2018-06-23T08:19:00.965Z,6.17
2018-06-23T08:21:29.093Z,5.40
2018-06-23T08:23:57.234Z,5.07
2018-06-23T08:26:25.481Z,5.60
2018-06-23T08:28:53.573Z,4.60
2018-06-23T08:31:22.037Z,5.80
2018-06-23T08:33:50.334Z,6.03
2018-06-23T08:36:18.497Z,5.90
2018-06-23T08:38:47.387Z,5.47
2018-06-23T08:41:15.886Z,5.00
2018-06-23T08:43:46.115Z,5.43
2018-06-23T08:46:14.919Z,4.97
2018-06-23T08:48:43.371Z,5.17
2018-06-23T08:51:11.818Z,5.43
2018-06-23T08:53:40.821Z,5.37
2018-06-23T08:56:12.483Z,5.00
2018-06-23T08:58:41.315Z,5.00
2018-06-23T09:01:10.194Z,4.60
2018-06-23T09:03:38.899Z,5.03
2018-06-23T09:06:07.945Z,5.27
2018-06-23T09:08:36.526Z,5.87
2018-06-23T09:11:04.885Z,5.47
2018-06-23T09:13:34.149Z,5.00
2018-06-23T09:16:02.618Z,5.17
2018-06-23T09:18:30.959Z,5.73
2018-06-23T09:20:59.166Z,4.97
2018-06-23T09:23:28.191Z,4.97
2018-06-23T09:25:56.568Z,5.33
2018-06-23T09:28:24.670Z,3.90
2018-06-23T09:30:52.837Z,3.87
2018-06-23T09:33:21.253Z,4.10
2018-06-23T09:35:49.454Z,4.33
2018-06-23T09:38:17.396Z,5.13
2018-06-23T09:40:45.536Z,4.33
2018-06-23T09:43:13.668Z,4.30
2018-06-23T09:45:41.801Z,4.27
2018-06-23T09:48:09.962Z,5.30
2018-06-23T09:50:38.132Z,4.43
2018-06-23T09:53:06.289Z,5.00
2018-06-23T09:55:34.438Z,4.97
2018-06-23T09:58:02.568Z,5.20
2018-06-23T10:00:30.713Z,4.47
2018-06-23T10:03:00.776Z,4.73
2018-06-23T10:05:29.470Z,5.00
2018-06-23T10:07:58.260Z,4.20
2018-06-23T10:10:26.445Z,4.50
2018-06-23T10:12:54.620Z,4.47
2018-06-23T10:15:22.791Z,4.37
2018-06-23T10:17:51.252Z,4.37
2018-06-23T10:20:19.393Z,4.63
2018-06-23T10:22:47.553Z,4.93
2018-06-23T10:25:15.721Z,5.37
2018-06-23T10:27:43.864Z,5.07
2018-06-23T10:30:12.053Z,5.70
2018-06-23T10:32:40.305Z,5.10
2018-06-23T10:35:08.421Z,4.57
2018-06-23T10:37:36.597Z,4.63
2018-06-23T10:40:04.757Z,4.63
2018-06-23T10:42:32.934Z,5.10
2018-06-23T10:45:01.069Z,4.70
2018-06-23T10:47:29.289Z,5.30
2018-06-23T10:49:57.458Z,5.10
2018-06-23T10:52:25.642Z,3.70
2018-06-23T10:54:53.776Z,4.27
2018-06-23T10:57:22.025Z,4.70
2018-06-23T10:59:50.266Z,5.03
2018-06-23T11:02:18.546Z,4.90
2018-06-23T11:04:46.878Z,4.53
2018-06-23T11:07:15.010Z,4.60
2018-06-23T11:09:43.233Z,4.40
2018-06-23T11:12:11.383Z,4.30
2018-06-23T11:14:39.558Z,4.80
2018-06-23T11:17:07.713Z,4.60
2018-06-23T11:19:35.923Z,4.27
2018-06-23T11:22:04.124Z,4.20
2018-06-23T11:24:32.394Z,4.47
2018-06-23T11:27:00.588Z,4.20
2018-06-23T11:29:28.758Z,4.53
2018-06-23T11:31:56.894Z,4.17
2018-06-23T11:34:25.249Z,4.10
2018-06-23T11:36:53.747Z,4.47
2018-06-23T11:39:21.653Z,4.20
2018-06-23T11:41:49.795Z,4.50
2018-06-23T11:44:17.938Z,4.93
2018-06-23T11:46:46.114Z,5.47
2018-06-23T11:49:14.283Z,4.60
2018-06-23T11:51:42.432Z,5.00
2018-06-23T11:54:10.579Z,4.43
2018-06-23T11:56:38.751Z,5.30
2018-06-23T11:59:06.909Z,5.13
2018-06-23T12:01:35.042Z,4.80
2018-06-23T12:04:03.285Z,4.10
2018-06-23T12:06:31.469Z,5.20
2018-06-23T12:08:59.643Z,4.50
2018-06-23T12:11:27.801Z,4.30
2018-06-23T12:13:55.961Z,5.50
2018-06-23T12:16:24.121Z,4.90
2018-06-23T12:18:52.246Z,4.93
2018-06-23T12:21:20.397Z,4.73
2018-06-23T12:23:48.560Z,4.40
2018-06-23T12:26:16.689Z,4.20
2018-06-23T12:28:44.592Z,4.50
2018-06-23T12:31:12.824Z,4.87
2018-06-23T12:33:41.029Z,4.90
2018-06-23T12:36:09.167Z,5.10
2018-06-23T12:38:37.457Z,3.90
2018-06-23T12:41:05.593Z,5.33
2018-06-23T12:43:33.713Z,4.57
2018-06-23T12:46:01.854Z,5.33
2018-06-23T12:48:30.085Z,5.10
2018-06-23T12:50:58.185Z,4.90
2018-06-23T12:53:28.342Z,4.63
2018-06-23T12:55:56.533Z,5.63
2018-06-23T12:58:24.671Z,5.03
2018-06-23T13:00:52.815Z,4.30
2018-06-23T13:03:20.963Z,5.10
2018-06-23T13:05:49.136Z,4.97
2018-06-23T13:08:17.254Z,4.70
2018-06-23T13:10:45.953Z,5.63
2018-06-23T13:13:14.081Z,5.43
2018-06-23T13:15:42.238Z,5.40
2018-06-23T13:18:10.409Z,5.73
2018-06-23T13:20:39.234Z,6.00
2018-06-23T13:23:07.358Z,5.10
2018-06-23T13:25:35.485Z,6.10
2018-06-23T13:28:03.696Z,5.57
2018-06-23T13:30:31.787Z,5.73
2018-06-23T13:32:59.911Z,5.50
2018-06-23T13:35:28.057Z,6.13
2018-06-23T13:37:56.217Z,5.60
2018-06-23T13:40:24.353Z,5.83
2018-06-23T13:42:52.501Z,5.70
2018-06-23T13:45:20.646Z,6.23
2018-06-23T13:47:48.812Z,5.33
2018-06-23T13:50:16.935Z,6.00
2018-06-23T13:52:45.065Z,5.50
2018-06-23T13:55:13.198Z,6.30
2018-06-23T13:57:41.403Z,5.73
2018-06-23T14:00:10.341Z,5.67
2018-06-23T14:02:38.559Z,5.63
2018-06-23T14:05:06.707Z,5.30
2018-06-23T14:07:35.267Z,6.37
2018-06-23T14:10:03.425Z,4.87
2018-06-23T14:12:31.569Z,5.13
2018-06-23T14:14:59.686Z,5.97
2018-06-23T14:17:27.821Z,4.70
2018-06-23T14:19:55.987Z,5.50
2018-06-23T14:22:24.141Z,5.23
2018-06-23T14:24:52.797Z,4.70
2018-06-23T14:27:20.925Z,4.67
2018-06-23T14:29:49.116Z,5.73
2018-06-23T14:32:17.365Z,4.27
2018-06-23T14:34:45.407Z,4.67
2018-06-23T14:37:13.541Z,4.60
2018-06-23T14:39:41.694Z,4.37
2018-06-23T14:42:09.850Z,3.90
2018-06-23T14:44:37.973Z,3.80
2018-06-23T14:47:06.205Z,4.47
2018-06-23T14:49:34.393Z,4.50
2018-06-23T14:52:02.534Z,4.40
2018-06-23T14:54:30.666Z,4.13
2018-06-23T14:56:58.854Z,3.80
2018-06-23T14:59:27.030Z,4.00
2018-06-23T15:01:55.174Z,4.37
2018-06-23T15:04:29.033Z,3.97
2018-06-23T15:06:57.214Z,4.13
2018-06-23T15:09:36.777Z,4.40
2018-06-23T15:12:16.444Z,3.80
2018-06-23T15:14:44.561Z,4.30
2018-06-23T15:17:12.693Z,5.00
2018-06-23T15:19:40.849Z,4.00
2018-06-23T15:22:09.027Z,5.00
2018-06-23T15:24:37.129Z,4.27
2018-06-23T15:27:05.726Z,4.73
2018-06-23T15:29:33.842Z,3.80
2018-06-23T15:32:02.306Z,5.00
2018-06-23T15:34:30.449Z,4.30
2018-06-23T15:36:58.566Z,3.80
2018-06-23T15:39:27.084Z,4.30
2018-06-23T15:41:55.209Z,4.27
2018-06-23T15:44:23.337Z,4.10
2018-06-23T15:46:51.467Z,3.80
2018-06-23T15:49:19.605Z,4.40
2018-06-23T15:51:47.756Z,4.00
2018-06-23T15:54:15.885Z,3.93
2018-06-23T15:56:44.042Z,4.40
2018-06-23T15:59:12.165Z,5.63
2018-06-23T16:01:40.316Z,4.97
2018-06-23T16:04:08.508Z,4.50
2018-06-23T16:06:36.618Z,3.97
2018-06-23T16:09:07.966Z,4.17
2018-06-23T16:11:36.089Z,4.57
2018-06-23T16:14:04.389Z,4.50
2018-06-23T16:16:32.555Z,3.67
2018-06-23T16:19:00.746Z,4.00
2018-06-23T16:21:29.258Z,3.60
2018-06-23T16:23:57.383Z,3.80
2018-06-23T16:26:25.525Z,3.70
2018-06-23T16:28:53.676Z,3.90
2018-06-23T16:31:21.785Z,3.87
2018-06-23T16:33:50.115Z,3.23
2018-06-23T16:36:18.616Z,3.37
2018-06-23T16:38:47.076Z,3.90
2018-06-23T16:41:15.197Z,4.07
2018-06-23T16:43:43.297Z,4.40
2018-06-23T16:46:11.443Z,4.40
2018-06-23T16:48:39.599Z,4.37
2018-06-23T16:51:07.711Z,4.17
2018-06-23T16:53:35.823Z,4.23
2018-06-23T16:56:03.958Z,4.40
2018-06-23T16:58:32.057Z,4.20
2018-06-23T17:01:00.173Z,4.40
2018-06-23T17:03:28.324Z,4.50
2018-06-23T17:05:56.434Z,4.00
2018-06-23T17:08:24.540Z,3.80
2018-06-23T17:10:52.657Z,4.10
2018-06-23T17:13:20.758Z,4.63
2018-06-23T17:15:48.870Z,4.57
2018-06-23T17:18:16.986Z,4.40
2018-06-23T17:20:45.104Z,4.63
2018-06-23T17:23:13.251Z,4.23
2018-06-23T17:25:41.370Z,4.87
2018-06-23T17:28:10.304Z,5.40
2018-06-23T17:30:38.414Z,5.07
2018-06-23T17:33:06.530Z,4.80
2018-06-23T17:35:34.641Z,4.20
2018-06-23T17:38:02.760Z,5.10
2018-06-23T17:40:30.870Z,4.10
2018-06-23T17:42:58.989Z,5.13
2018-06-23T17:45:27.103Z,4.30
2018-06-23T17:47:55.209Z,4.30
2018-06-23T17:50:23.326Z,4.43
2018-06-23T17:52:51.445Z,4.00
2018-06-23T17:55:19.601Z,3.30
2018-06-23T17:57:47.846Z,3.57
2018-06-23T18:00:15.832Z,3.90
2018-06-23T18:02:43.941Z,3.50
2018-06-23T18:05:12.046Z,3.23
2018-06-23T18:07:40.149Z,3.10
2018-06-23T18:10:08.442Z,4.20
2018-06-23T18:12:36.565Z,3.40
2018-06-23T18:15:04.869Z,2.90
2018-06-23T18:17:32.984Z,3.10
2018-06-23T18:20:01.134Z,3.60
2018-06-23T18:22:29.252Z,3.40
2018-06-23T18:24:57.359Z,2.83
2018-06-23T18:27:25.473Z,2.90
2018-06-23T18:29:53.645Z,2.53
2018-06-23T18:32:21.783Z,3.37
2018-06-23T18:34:49.885Z,3.10
2018-06-23T18:37:17.983Z,3.13
2018-06-23T18:39:46.103Z,2.77
2018-06-23T18:42:14.206Z,3.10
2018-06-23T18:44:42.309Z,3.10
2018-06-23T18:47:10.414Z,2.77
2018-06-23T18:49:38.525Z,3.47
2018-06-23T18:52:06.659Z,3.27
2018-06-23T18:54:34.834Z,3.27
2018-06-23T18:57:02.933Z,2.90
2018-06-23T18:59:31.075Z,3.30
2018-06-23T19:01:59.681Z,2.60
2018-06-23T19:04:27.820Z,2.87
2018-06-23T19:06:55.927Z,3.43
2018-06-23T19:09:24.142Z,5.00
2018-06-23T19:11:52.179Z,3.30
2018-06-23T19:14:20.340Z,2.90
2018-06-23T19:16:48.465Z,3.70
2018-06-23T19:19:16.573Z,3.83
2018-06-23T19:21:44.683Z,2.90
2018-06-23T19:24:12.838Z,3.17
2018-06-23T19:26:40.994Z,3.10
2018-06-23T19:29:09.102Z,4.70
2018-06-23T19:31:37.228Z,4.50
2018-06-23T19:34:05.339Z,4.93
2018-06-23T19:36:33.417Z,5.43
2018-06-23T19:39:03.260Z,3.80
2018-06-23T19:41:31.380Z,3.13
2018-06-23T19:43:59.499Z,3.70
2018-06-23T19:46:27.604Z,3.60
2018-06-23T19:48:55.813Z,4.17
2018-06-23T19:51:23.921Z,4.00
2018-06-23T19:53:52.122Z,4.13
2018-06-23T19:56:20.225Z,4.97
2018-06-23T19:58:48.322Z,3.80
2018-06-23T20:01:16.207Z,3.57
2018-06-23T20:03:44.301Z,3.23
2018-06-23T20:06:12.410Z,3.50
2018-06-23T20:08:40.494Z,3.83
2018-06-23T20:11:08.601Z,3.70
2018-06-23T20:13:36.687Z,3.50
2018-06-23T20:16:04.786Z,3.57
2018-06-23T20:18:32.901Z,3.80
2018-06-23T20:21:01.003Z,3.97
2018-06-23T20:23:29.105Z,3.70
2018-06-23T20:25:57.202Z,3.63
2018-06-23T20:28:25.348Z,4.40
2018-06-23T20:30:53.457Z,3.87
2018-06-23T20:33:21.558Z,4.20
2018-06-23T20:35:49.653Z,4.07
2018-06-23T20:38:17.738Z,4.40
2018-06-23T20:40:45.841Z,3.50
2018-06-23T20:43:13.733Z,3.73
2018-06-23T20:45:41.838Z,3.50
2018-06-23T20:48:09.933Z,4.27
2018-06-23T20:50:38.052Z,3.90
2018-06-23T20:53:06.208Z,4.10
2018-06-23T20:55:34.287Z,4.03
2018-06-23T20:58:02.388Z,4.17
2018-06-23T21:00:30.493Z,4.43
2018-06-23T21:02:58.615Z,4.03
2018-06-23T21:05:26.729Z,4.97
2018-06-23T21:07:54.858Z,4.50
2018-06-23T21:10:34.225Z,4.40
2018-06-23T21:13:02.313Z,4.60
2018-06-23T21:15:30.439Z,5.17
2018-06-23T21:17:58.574Z,4.93
2018-06-23T21:20:26.703Z,5.63
2018-06-23T21:22:54.889Z,4.73
2018-06-23T21:25:23.110Z,4.70
2018-06-23T21:27:51.205Z,4.60
2018-06-23T21:30:20.041Z,5.00
2018-06-23T21:32:48.166Z,5.00
2018-06-23T21:35:16.270Z,4.47
2018-06-23T21:37:44.403Z,4.60
2018-06-23T21:40:12.521Z,5.07
2018-06-23T21:42:40.586Z,4.87
2018-06-23T21:45:08.823Z,4.70
2018-06-23T21:47:37.547Z,4.80
2018-06-23T21:50:05.592Z,4.77
2018-06-23T21:52:34.209Z,5.50
2018-06-23T21:55:02.576Z,5.10
2018-06-23T21:57:30.669Z,4.97
2018-06-23T21:59:58.825Z,5.30
2018-06-23T22:02:26.946Z,6.00
2018-06-23T22:04:55.038Z,6.00
2018-06-23T22:07:23.139Z,5.17
2018-06-23T22:09:51.277Z,5.47
2018-06-23T22:12:19.385Z,5.40
2018-06-23T22:14:47.529Z,4.67
2018-06-23T22:17:15.625Z,5.23
2018-06-23T22:19:43.710Z,5.20
2018-06-23T22:22:11.875Z,5.83
2018-06-23T22:24:40.045Z,6.37
2018-06-23T22:27:08.181Z,6.30
2018-06-23T22:29:36.324Z,5.90
2018-06-23T22:32:04.354Z,6.60
2018-06-23T22:34:32.444Z,5.80
2018-06-23T22:37:00.578Z,6.53
2018-06-23T22:39:28.705Z,6.27
2018-06-23T22:41:56.813Z,6.47
2018-06-23T22:44:24.946Z,6.73
2018-06-23T22:46:53.041Z,6.60
2018-06-23T22:49:21.144Z,6.83
2018-06-23T22:51:49.629Z,6.87
2018-06-23T22:54:17.732Z,7.30
2018-06-23T22:56:45.835Z,6.80
2018-06-23T22:59:13.955Z,7.60
2018-06-23T23:01:42.054Z,7.23
2018-06-23T23:04:10.244Z,7.00
2018-06-23T23:06:38.353Z,6.47
2018-06-23T23:09:07.972Z,6.57
2018-06-23T23:11:36.074Z,7.50
2018-06-23T23:14:04.541Z,7.00
2018-06-23T23:16:32.697Z,7.30
2018-06-23T23:19:00.801Z,7.60
2018-06-23T23:21:28.921Z,7.20
2018-06-23T23:23:57.026Z,7.57
2018-06-23T23:26:25.213Z,6.37
2018-06-23T23:28:53.321Z,7.40
2018-06-23T23:31:21.429Z,7.10
2018-06-23T23:33:49.537Z,6.70
2018-06-23T23:36:17.657Z,7.13
2018-06-23T23:38:45.826Z,7.10
2018-06-23T23:41:13.925Z,7.40
2018-06-23T23:43:42.021Z,7.73
2018-06-23T23:46:10.134Z,8.33
2018-06-23T23:48:38.252Z,8.17
2018-06-23T23:51:06.337Z,7.27
2018-06-23T23:53:34.510Z,8.03
2018-06-23T23:56:02.610Z,7.80
2018-06-23T23:58:30.728Z,7.53
